sensor_id;sensor_type;location;lat;lon;timestamp;pressure;altitude;pressure_sealevel;temperature;humidity
27685;BME280;46113;50.130;8.526;2023-02-26T00:01:29;98770.97;;;-5.24;69.91
27685;BME280;46113;50.130;8.526;2023-02-26T00:03:58;98777.00;;;-5.43;70.21
27685;BME280;46113;50.130;8.526;2023-02-26T00:06:27;98777.00;;;-5.24;70.22
27685;BME280;46113;50.130;8.526;2023-02-26T00:08:55;98775.28;;;-5.28;70.24
27685;BME280;46113;50.130;8.526;2023-02-26T00:11:22;98777.88;;;-5.33;71.05
27685;BME280;46113;50.130;8.526;2023-02-26T00:13:49;98776.13;;;-5.38;70.65
27685;BME280;46113;50.130;8.526;2023-02-26T00:16:29;98777.00;;;-5.32;70.70
27685;BME280;46113;50.130;8.526;2023-02-26T00:18:59;98765.81;;;-5.37;70.48
27685;BME280;46113;50.130;8.526;2023-02-26T00:21:28;98770.97;;;-5.57;70.11
27685;BME280;46113;50.130;8.526;2023-02-26T00:23:55;98771.84;;;-5.57;70.08
27685;BME280;46113;50.130;8.526;2023-02-26T00:26:23;98772.69;;;-5.62;70.26
27685;BME280;46113;50.130;8.526;2023-02-26T00:28:50;98772.69;;;-5.56;70.60
27685;BME280;46113;50.130;8.526;2023-02-26T00:31:18;98775.28;;;-5.65;70.68
27685;BME280;46113;50.130;8.526;2023-02-26T00:33:46;98781.25;;;-5.88;70.49
27685;BME280;46113;50.130;8.526;2023-02-26T00:39:14;98773.50;;;-5.84;70.15
27685;BME280;46113;50.130;8.526;2023-02-26T00:41:43;98776.97;;;-5.82;70.69
27685;BME280;46113;50.130;8.526;2023-02-26T00:44:10;98779.53;;;-5.85;70.49
27685;BME280;46113;50.130;8.526;2023-02-26T00:52:12;98782.09;;;-5.86;70.98
27685;BME280;46113;50.130;8.526;2023-02-26T00:54:40;98786.41;;;-5.79;70.68
27685;BME280;46113;50.130;8.526;2023-02-26T00:57:06;98789.84;;;-5.83;71.06
27685;BME280;46113;50.130;8.526;2023-02-26T00:59:33;98789.00;;;-5.85;71.40
27685;BME280;46113;50.130;8.526;2023-02-26T01:02:00;98789.84;;;-5.83;71.00
27685;BME280;46113;50.130;8.526;2023-02-26T01:04:27;98795.00;;;-5.77;70.81
27685;BME280;46113;50.130;8.526;2023-02-26T01:06:56;98792.44;;;-5.78;71.24
27685;BME280;46113;50.130;8.526;2023-02-26T01:09:34;98794.13;;;-5.93;71.05
27685;BME280;46113;50.130;8.526;2023-02-26T01:12:07;98801.03;;;-5.90;71.86
27685;BME280;46113;50.130;8.526;2023-02-26T01:14:34;98798.38;;;-6.11;71.94
27685;BME280;46113;50.130;8.526;2023-02-26T01:17:07;98806.13;;;-6.06;71.95
27685;BME280;46113;50.130;8.526;2023-02-26T01:19:48;98795.81;;;-5.97;71.36
27685;BME280;46113;50.130;8.526;2023-02-26T01:25:00;98793.28;;;-5.92;70.76
27685;BME280;46113;50.130;8.526;2023-02-26T01:27:27;98795.84;;;-5.94;71.00
27685;BME280;46113;50.130;8.526;2023-02-26T01:29:54;98799.25;;;-5.98;70.94
27685;BME280;46113;50.130;8.526;2023-02-26T01:32:25;98800.97;;;-6.04;70.43
27685;BME280;46113;50.130;8.526;2023-02-26T01:35:16;98807.78;;;-6.24;71.38
27685;BME280;46113;50.130;8.526;2023-02-26T01:40:45;98810.34;;;-6.30;70.95
27685;BME280;46113;50.130;8.526;2023-02-26T01:43:21;98817.19;;;-6.30;71.27
27685;BME280;46113;50.130;8.526;2023-02-26T01:46:05;98817.94;;;-6.58;71.81
27685;BME280;46113;50.130;8.526;2023-02-26T01:48:37;98816.28;;;-6.45;71.78
27685;BME280;46113;50.130;8.526;2023-02-26T01:51:09;98816.28;;;-6.42;72.02
27685;BME280;46113;50.130;8.526;2023-02-26T01:53:36;98817.88;;;-6.66;71.89
27685;BME280;46113;50.130;8.526;2023-02-26T01:56:14;98818.78;;;-6.61;72.39
27685;BME280;46113;50.130;8.526;2023-02-26T01:58:45;98822.22;;;-6.55;72.32
27685;BME280;46113;50.130;8.526;2023-02-26T02:01:13;98817.97;;;-6.50;72.16
27685;BME280;46113;50.130;8.526;2023-02-26T02:03:41;98825.59;;;-6.67;73.02
27685;BME280;46113;50.130;8.526;2023-02-26T02:06:15;98824.91;;;-6.41;72.19
27685;BME280;46113;50.130;8.526;2023-02-26T02:08:43;98820.63;;;-6.27;72.32
27685;BME280;46113;50.130;8.526;2023-02-26T02:11:12;98827.53;;;-6.26;71.40
27685;BME280;46113;50.130;8.526;2023-02-26T02:14:00;98822.38;;;-6.23;71.05
27685;BME280;46113;50.130;8.526;2023-02-26T02:16:44;98829.25;;;-6.22;71.50
27685;BME280;46113;50.130;8.526;2023-02-26T02:19:39;98833.47;;;-6.41;71.69
27685;BME280;46113;50.130;8.526;2023-02-26T02:33:14;98841.16;;;-6.45;71.91
27685;BME280;46113;50.130;8.526;2023-02-26T02:35:52;98835.16;;;-6.46;71.49
27685;BME280;46113;50.130;8.526;2023-02-26T02:38:39;98838.47;;;-6.69;72.61
27685;BME280;46113;50.130;8.526;2023-02-26T02:41:15;98846.19;;;-6.67;72.32
27685;BME280;46113;50.130;8.526;2023-02-26T02:43:44;98847.16;;;-6.45;71.20
27685;BME280;46113;50.130;8.526;2023-02-26T02:46:22;98847.19;;;-6.40;70.48
27685;BME280;46113;50.130;8.526;2023-02-26T02:49:01;98848.91;;;-6.45;71.48
27685;BME280;46113;50.130;8.526;2023-02-26T02:51:35;98848.88;;;-6.49;71.43
27685;BME280;46113;50.130;8.526;2023-02-26T02:54:13;98854.09;;;-6.36;70.73
27685;BME280;46113;50.130;8.526;2023-02-26T02:56:55;98856.63;;;-6.45;71.06
27685;BME280;46113;50.130;8.526;2023-02-26T02:59:29;98866.06;;;-6.43;70.25
27685;BME280;46113;50.130;8.526;2023-02-26T03:02:12;98864.09;;;-6.88;72.13
27685;BME280;46113;50.130;8.526;2023-02-26T03:04:40;98864.16;;;-6.78;71.34
27685;BME280;46113;50.130;8.526;2023-02-26T03:07:08;98868.41;;;-6.82;71.96
27685;BME280;46113;50.130;8.526;2023-02-26T03:09:35;98872.72;;;-6.78;71.50
27685;BME280;46113;50.130;8.526;2023-02-26T03:12:02;98877.00;;;-6.80;72.21
27685;BME280;46113;50.130;8.526;2023-02-26T03:14:30;98876.06;;;-6.91;73.57
27685;BME280;46113;50.130;8.526;2023-02-26T03:22:56;98891.75;;;-6.57;71.94
27685;BME280;46113;50.130;8.526;2023-02-26T03:28:51;98890.88;;;-6.53;72.90
27685;BME280;46113;50.130;8.526;2023-02-26T03:31:06;98888.38;;;-6.42;71.18
27685;BME280;46113;50.130;8.526;2023-02-26T03:33:49;98889.25;;;-6.38;72.20
27685;BME280;46113;50.130;8.526;2023-02-26T03:36:39;98894.47;;;-6.24;70.90
27685;BME280;46113;50.130;8.526;2023-02-26T03:39:21;98899.44;;;-6.58;70.94
27685;BME280;46113;50.130;8.526;2023-02-26T03:44:31;98912.31;;;-6.58;70.20
27685;BME280;46113;50.130;8.526;2023-02-26T03:47:05;98910.69;;;-6.41;70.39
27685;BME280;46113;50.130;8.526;2023-02-26T03:49:44;98914.22;;;-6.31;70.64
27685;BME280;46113;50.130;8.526;2023-02-26T03:52:12;98921.09;;;-6.24;70.08
27685;BME280;46113;50.130;8.526;2023-02-26T03:55:17;98920.91;;;-6.60;71.13
27685;BME280;46113;50.130;8.526;2023-02-26T03:58:11;98920.25;;;-6.21;70.41
27685;BME280;46113;50.130;8.526;2023-02-26T04:01:03;98930.63;;;-6.07;70.06
27685;BME280;46113;50.130;8.526;2023-02-26T04:03:38;98925.50;;;-5.99;69.22
27685;BME280;46113;50.130;8.526;2023-02-26T04:06:07;98934.03;;;-6.14;70.51
27685;BME280;46113;50.130;8.526;2023-02-26T04:08:35;98938.41;;;-5.98;69.81
27685;BME280;46113;50.130;8.526;2023-02-26T04:11:10;98940.94;;;-6.04;70.47
27685;BME280;46113;50.130;8.526;2023-02-26T04:13:37;98940.13;;;-5.98;69.53
27685;BME280;46113;50.130;8.526;2023-02-26T04:16:04;98940.13;;;-5.97;69.34
27685;BME280;46113;50.130;8.526;2023-02-26T04:18:31;98944.34;;;-6.14;69.73
27685;BME280;46113;50.130;8.526;2023-02-26T04:20:59;98954.63;;;-6.14;69.31
27685;BME280;46113;50.130;8.526;2023-02-26T04:23:25;98948.63;;;-6.13;70.31
27685;BME280;46113;50.130;8.526;2023-02-26T04:25:52;98955.56;;;-5.97;70.78
27685;BME280;46113;50.130;8.526;2023-02-26T04:28:19;98948.69;;;-6.09;71.04
27685;BME280;46113;50.130;8.526;2023-02-26T04:30:46;98945.31;;;-5.90;69.78
27685;BME280;46113;50.130;8.526;2023-02-26T04:33:14;98950.44;;;-5.95;69.81
27685;BME280;46113;50.130;8.526;2023-02-26T04:35:42;98958.16;;;-5.95;69.56
27685;BME280;46113;50.130;8.526;2023-02-26T04:38:17;98950.41;;;-5.97;69.43
27685;BME280;46113;50.130;8.526;2023-02-26T04:40:44;98948.72;;;-5.98;69.08
27685;BME280;46113;50.130;8.526;2023-02-26T04:43:13;98959.81;;;-6.11;69.46
27685;BME280;46113;50.130;8.526;2023-02-26T04:45:49;98957.88;;;-6.43;70.21
27685;BME280;46113;50.130;8.526;2023-02-26T04:48:16;98963.16;;;-6.26;69.71
27685;BME280;46113;50.130;8.526;2023-02-26T04:50:46;98966.63;;;-6.20;70.30
27685;BME280;46113;50.130;8.526;2023-02-26T04:53:13;98967.44;;;-6.27;69.92
27685;BME280;46113;50.130;8.526;2023-02-26T04:55:43;98980.41;;;-6.14;70.25
27685;BME280;46113;50.130;8.526;2023-02-26T04:58:10;98973.59;;;-6.01;70.29
27685;BME280;46113;50.130;8.526;2023-02-26T05:00:37;98977.78;;;-6.17;70.35
27685;BME280;46113;50.130;8.526;2023-02-26T05:03:03;98978.78;;;-6.00;69.85
27685;BME280;46113;50.130;8.526;2023-02-26T05:05:31;98985.72;;;-5.82;69.59
27685;BME280;46113;50.130;8.526;2023-02-26T05:08:01;98984.84;;;-5.82;68.04
27685;BME280;46113;50.130;8.526;2023-02-26T05:10:28;98988.31;;;-5.80;69.43
27685;BME280;46113;50.130;8.526;2023-02-26T05:12:54;98993.38;;;-5.97;69.06
27685;BME280;46113;50.130;8.526;2023-02-26T05:15:21;99000.25;;;-5.91;69.01
27685;BME280;46113;50.130;8.526;2023-02-26T05:17:48;98994.22;;;-6.00;69.18
27685;BME280;46113;50.130;8.526;2023-02-26T05:20:15;98995.16;;;-5.84;69.91
27685;BME280;46113;50.130;8.526;2023-02-26T05:22:42;98995.25;;;-5.68;69.04
27685;BME280;46113;50.130;8.526;2023-02-26T05:25:10;98983.19;;;-5.78;68.97
27685;BME280;46113;50.130;8.526;2023-02-26T05:27:40;98983.94;;;-5.98;69.69
27685;BME280;46113;50.130;8.526;2023-02-26T05:30:13;98990.88;;;-5.77;67.91
27685;BME280;46113;50.130;8.526;2023-02-26T05:32:41;98980.59;;;-5.75;68.03
27685;BME280;46113;50.130;8.526;2023-02-26T05:35:09;98993.44;;;-5.83;69.17
27685;BME280;46113;50.130;8.526;2023-02-26T05:37:37;99008.78;;;-6.02;68.85
27685;BME280;46113;50.130;8.526;2023-02-26T05:40:08;99020.94;;;-5.85;67.92
27685;BME280;46113;50.130;8.526;2023-02-26T05:42:38;99022.63;;;-5.86;68.71
27685;BME280;46113;50.130;8.526;2023-02-26T05:45:06;99026.91;;;-5.86;69.09
27685;BME280;46113;50.130;8.526;2023-02-26T05:47:33;99031.19;;;-5.91;68.81
27685;BME280;46113;50.130;8.526;2023-02-26T05:50:04;99030.44;;;-5.70;69.14
27685;BME280;46113;50.130;8.526;2023-02-26T05:52:31;99033.03;;;-5.75;69.20
27685;BME280;46113;50.130;8.526;2023-02-26T05:55:08;99044.19;;;-5.73;68.22
27685;BME280;46113;50.130;8.526;2023-02-26T05:57:37;99039.09;;;-5.59;68.66
27685;BME280;46113;50.130;8.526;2023-02-26T06:00:05;99047.75;;;-5.49;68.43
27685;BME280;46113;50.130;8.526;2023-02-26T06:02:40;99045.13;;;-5.58;69.17
27685;BME280;46113;50.130;8.526;2023-02-26T06:05:07;99054.50;;;-5.71;69.31
27685;BME280;46113;50.130;8.526;2023-02-26T06:07:34;99058.84;;;-5.62;69.08
27685;BME280;46113;50.130;8.526;2023-02-26T06:10:01;99061.56;;;-5.41;67.25
27685;BME280;46113;50.130;8.526;2023-02-26T06:12:29;99070.25;;;-5.14;67.56
27685;BME280;46113;50.130;8.526;2023-02-26T06:14:55;99069.38;;;-5.19;65.83
27685;BME280;46113;50.130;8.526;2023-02-26T06:17:22;99083.13;;;-5.20;66.44
27685;BME280;46113;50.130;8.526;2023-02-26T06:19:49;99085.75;;;-4.99;66.67
27685;BME280;46113;50.130;8.526;2023-02-26T06:22:17;99083.22;;;-4.85;65.74
27685;BME280;46113;50.130;8.526;2023-02-26T06:24:45;99090.97;;;-4.84;66.25
27685;BME280;46113;50.130;8.526;2023-02-26T06:27:11;99091.00;;;-4.73;64.50
27685;BME280;46113;50.130;8.526;2023-02-26T06:29:38;99103.94;;;-4.59;64.39
27685;BME280;46113;50.130;8.526;2023-02-26T06:32:07;99104.75;;;-4.76;65.34
27685;BME280;46113;50.130;8.526;2023-02-26T06:34:34;99103.88;;;-4.95;66.66
27685;BME280;46113;50.130;8.526;2023-02-26T06:37:04;99112.53;;;-4.63;65.44
27685;BME280;46113;50.130;8.526;2023-02-26T06:39:31;99115.13;;;-4.62;64.98
27685;BME280;46113;50.130;8.526;2023-02-26T06:42:01;99125.50;;;-4.33;64.13
27685;BME280;46113;50.130;8.526;2023-02-26T06:44:28;99133.25;;;-4.23;63.88
27685;BME280;46113;50.130;8.526;2023-02-26T06:46:55;99130.56;;;-4.83;64.67
27685;BME280;46113;50.130;8.526;2023-02-26T06:49:32;99135.81;;;-4.46;64.27
27685;BME280;46113;50.130;8.526;2023-02-26T06:52:26;99135.75;;;-4.65;63.93
27685;BME280;46113;50.130;8.526;2023-02-26T06:54:52;99133.25;;;-4.49;63.36
27685;BME280;46113;50.130;8.526;2023-02-26T06:57:22;99134.88;;;-4.82;63.23
27685;BME280;46113;50.130;8.526;2023-02-26T06:59:49;99130.63;;;-4.46;63.97
27685;BME280;46113;50.130;8.526;2023-02-26T07:02:22;99149.56;;;-4.58;63.22
27685;BME280;46113;50.130;8.526;2023-02-26T07:04:49;99157.34;;;-4.47;62.68
27685;BME280;46113;50.130;8.526;2023-02-26T07:07:16;99159.91;;;-4.53;62.88
27685;BME280;46113;50.130;8.526;2023-02-26T07:09:43;99163.38;;;-4.36;62.03
27685;BME280;46113;50.130;8.526;2023-02-26T07:12:15;99165.13;;;-4.17;62.31
27685;BME280;46113;50.130;8.526;2023-02-26T07:14:45;99171.19;;;-4.08;62.27
27685;BME280;46113;50.130;8.526;2023-02-26T07:17:12;99173.72;;;-4.20;61.98
27685;BME280;46113;50.130;8.526;2023-02-26T07:19:48;99176.31;;;-4.22;62.35
27685;BME280;46113;50.130;8.526;2023-02-26T07:22:19;99182.34;;;-4.15;62.05
27685;BME280;46113;50.130;8.526;2023-02-26T07:24:53;99181.50;;;-4.18;61.89
27685;BME280;46113;50.130;8.526;2023-02-26T07:27:26;99186.66;;;-4.18;61.44
27685;BME280;46113;50.130;8.526;2023-02-26T07:29:53;99190.13;;;-4.13;61.84
27685;BME280;46113;50.130;8.526;2023-02-26T07:32:20;99189.22;;;-4.36;62.89
27685;BME280;46113;50.130;8.526;2023-02-26T07:34:47;99190.06;;;-4.40;62.68
27685;BME280;46113;50.130;8.526;2023-02-26T07:37:14;99197.88;;;-3.98;61.19
27685;BME280;46113;50.130;8.526;2023-02-26T07:39:40;99209.06;;;-4.24;61.49
27685;BME280;46113;50.130;8.526;2023-02-26T07:42:07;99210.78;;;-4.15;61.09
27685;BME280;46113;50.130;8.526;2023-02-26T07:44:35;99210.69;;;-4.55;61.18
27685;BME280;46113;50.130;8.526;2023-02-26T07:47:02;99218.47;;;-4.49;62.04
27685;BME280;46113;50.130;8.526;2023-02-26T07:49:29;99221.94;;;-4.44;60.92
27685;BME280;46113;50.130;8.526;2023-02-26T07:51:55;99229.63;;;-4.55;61.89
27685;BME280;46113;50.130;8.526;2023-02-26T07:54:22;99227.09;;;-4.38;61.78
27685;BME280;46113;50.130;8.526;2023-02-26T07:56:49;99233.09;;;-4.45;62.69
27685;BME280;46113;50.130;8.526;2023-02-26T07:59:17;99235.72;;;-4.39;61.66
27685;BME280;46113;50.130;8.526;2023-02-26T08:01:46;99236.53;;;-4.52;61.57
27685;BME280;46113;50.130;8.526;2023-02-26T08:04:13;99240.91;;;-4.26;60.78
27685;BME280;46113;50.130;8.526;2023-02-26T08:06:40;99255.53;;;-4.27;61.26
27685;BME280;46113;50.130;8.526;2023-02-26T08:09:07;99249.56;;;-4.18;60.37
27685;BME280;46113;50.130;8.526;2023-02-26T08:11:33;99251.34;;;-3.59;59.32
27685;BME280;46113;50.130;8.526;2023-02-26T08:14:10;99253.91;;;-3.64;59.43
27685;BME280;46113;50.130;8.526;2023-02-26T08:16:40;99249.59;;;-3.34;59.18
27685;BME280;46113;50.130;8.526;2023-02-26T08:19:18;99262.53;;;-3.73;59.42
27685;BME280;46113;50.130;8.526;2023-02-26T08:22:09;99262.56;;;-3.52;58.50
27685;BME280;46113;50.130;8.526;2023-02-26T08:24:38;99257.38;;;-3.51;58.74
27685;BME280;46113;50.130;8.526;2023-02-26T08:27:05;99258.25;;;-3.52;59.06
27685;BME280;46113;50.130;8.526;2023-02-26T08:29:32;99264.28;;;-3.69;58.05
27685;BME280;46113;50.130;8.526;2023-02-26T08:31:58;99269.47;;;-3.65;58.26
27685;BME280;46113;50.130;8.526;2023-02-26T08:34:25;99284.09;;;-3.68;58.40
27685;BME280;46113;50.130;8.526;2023-02-26T08:36:52;99286.72;;;-3.63;57.97
27685;BME280;46113;50.130;8.526;2023-02-26T08:39:19;99286.66;;;-3.86;58.20
27685;BME280;46113;50.130;8.526;2023-02-26T08:41:46;99296.00;;;-4.35;59.06
27685;BME280;46113;50.130;8.526;2023-02-26T08:44:13;99302.19;;;-3.77;58.88
27685;BME280;46113;50.130;8.526;2023-02-26T08:46:40;99300.50;;;-3.69;57.61
27685;BME280;46113;50.130;8.526;2023-02-26T08:49:07;99303.94;;;-3.60;57.67
27685;BME280;46113;50.130;8.526;2023-02-26T08:51:33;99313.41;;;-3.69;58.57
27685;BME280;46113;50.130;8.526;2023-02-26T08:54:00;99313.31;;;-4.17;58.83
27685;BME280;46113;50.130;8.526;2023-02-26T08:56:27;99317.69;;;-3.89;58.02
27685;BME280;46113;50.130;8.526;2023-02-26T08:58:54;99326.38;;;-3.65;57.26
27685;BME280;46113;50.130;8.526;2023-02-26T09:01:20;99318.53;;;-3.87;57.18
27685;BME280;46113;50.130;8.526;2023-02-26T09:03:47;99319.38;;;-3.96;56.95
27685;BME280;46113;50.130;8.526;2023-02-26T09:06:14;99312.47;;;-4.11;56.82
27685;BME280;46113;50.130;8.526;2023-02-26T09:08:40;99303.00;;;-4.00;57.64
27685;BME280;46113;50.130;8.526;2023-02-26T09:11:07;99329.72;;;-4.02;57.80
27685;BME280;46113;50.130;8.526;2023-02-26T09:13:34;99338.31;;;-4.02;56.99
27685;BME280;46113;50.130;8.526;2023-02-26T09:16:00;99330.59;;;-3.94;56.70
27685;BME280;46113;50.130;8.526;2023-02-26T09:18:27;99329.75;;;-3.95;56.51
27685;BME280;46113;50.130;8.526;2023-02-26T09:20:54;99341.84;;;-3.70;55.66
27685;BME280;46113;50.130;8.526;2023-02-26T09:23:21;99343.56;;;-3.82;56.32
27685;BME280;46113;50.130;8.526;2023-02-26T09:25:52;99340.19;;;-3.46;55.68
27685;BME280;46113;50.130;8.526;2023-02-26T09:28:22;99348.81;;;-3.39;54.30
27685;BME280;46113;50.130;8.526;2023-02-26T09:30:53;99348.78;;;-3.52;53.57
27685;BME280;46113;50.130;8.526;2023-02-26T09:33:21;99350.53;;;-3.17;53.49
27685;BME280;46113;50.130;8.526;2023-02-26T09:35:49;99357.41;;;-3.47;53.67
27685;BME280;46113;50.130;8.526;2023-02-26T09:38:17;99367.75;;;-3.67;53.04
27685;BME280;46113;50.130;8.526;2023-02-26T09:46:25;99368.59;;;-3.57;52.78
27685;BME280;46113;50.130;8.526;2023-02-26T09:49:03;99372.03;;;-3.68;53.49
27685;BME280;46113;50.130;8.526;2023-02-26T09:51:33;99365.19;;;-3.31;52.58
27685;BME280;46113;50.130;8.526;2023-02-26T09:54:11;99385.78;;;-3.84;52.62
27685;BME280;46113;50.130;8.526;2023-02-26T09:56:40;99379.84;;;-3.35;52.47
27685;BME280;46113;50.130;8.526;2023-02-26T09:59:08;99371.25;;;-3.07;52.14
27685;BME280;46113;50.130;8.526;2023-02-26T10:02:00;99379.00;;;-2.64;51.60
27685;BME280;46113;50.130;8.526;2023-02-26T10:07:17;99388.50;;;-3.23;52.05
27685;BME280;46113;50.130;8.526;2023-02-26T10:12:26;99371.22;;;-2.78;51.58
27685;BME280;46113;50.130;8.526;2023-02-26T10:23:21;99394.50;;;-2.60;50.40
27685;BME280;46113;50.130;8.526;2023-02-26T10:25:59;99408.34;;;-2.52;50.65
27685;BME280;46113;50.130;8.526;2023-02-26T10:31:07;99406.63;;;-2.91;49.70
27685;BME280;46113;50.130;8.526;2023-02-26T10:33:37;99404.88;;;-2.62;49.67
27685;BME280;46113;50.130;8.526;2023-02-26T10:38:56;99406.50;;;-2.16;49.25
27685;BME280;46113;50.130;8.526;2023-02-26T10:41:24;99408.22;;;-2.13;49.06
27685;BME280;46113;50.130;8.526;2023-02-26T10:44:02;99403.81;;;-1.85;48.11
27685;BME280;46113;50.130;8.526;2023-02-26T10:46:45;99415.13;;;-2.01;49.12
27685;BME280;46113;50.130;8.526;2023-02-26T10:49:34;99415.19;;;-2.25;48.98
27685;BME280;46113;50.130;8.526;2023-02-26T10:52:17;99416.84;;;-2.06;49.57
27685;BME280;46113;50.130;8.526;2023-02-26T10:57:29;99422.00;;;-1.89;48.64
27685;BME280;46113;50.130;8.526;2023-02-26T10:59:59;99427.16;;;-1.86;49.08
27685;BME280;46113;50.130;8.526;2023-02-26T11:02:36;99446.25;;;-2.07;48.28
27685;BME280;46113;50.130;8.526;2023-02-26T11:05:12;99437.66;;;-2.20;49.15
27685;BME280;46113;50.130;8.526;2023-02-26T11:07:41;99452.28;;;-2.04;49.18
27685;BME280;46113;50.130;8.526;2023-02-26T11:10:15;99442.72;;;-1.86;49.19
27685;BME280;46113;50.130;8.526;2023-02-26T11:12:42;99431.41;;;-1.70;49.21
27685;BME280;46113;50.130;8.526;2023-02-26T11:15:27;99452.16;;;-1.65;49.30
27685;BME280;46113;50.130;8.526;2023-02-26T11:17:56;99443.47;;;-1.62;49.08
27685;BME280;46113;50.130;8.526;2023-02-26T11:20:41;99441.91;;;-2.02;49.14
27685;BME280;46113;50.130;8.526;2023-02-26T11:23:28;99434.09;;;-1.90;49.66
27685;BME280;46113;50.130;8.526;2023-02-26T11:26:03;99446.13;;;-1.73;49.42
27685;BME280;46113;50.130;8.526;2023-02-26T11:28:42;99449.78;;;-2.47;51.13
27685;BME280;46113;50.130;8.526;2023-02-26T11:31:11;99443.66;;;-2.07;50.06
27685;BME280;46113;50.130;8.526;2023-02-26T11:33:51;99435.78;;;-1.81;51.32
27685;BME280;46113;50.130;8.526;2023-02-26T11:36:23;99440.88;;;-1.61;49.88
27685;BME280;46113;50.130;8.526;2023-02-26T11:39:15;99443.59;;;-1.86;50.41
27685;BME280;46113;50.130;8.526;2023-02-26T11:41:44;99443.47;;;-1.58;50.09
27685;BME280;46113;50.130;8.526;2023-02-26T11:44:19;99448.81;;;-2.01;49.87
27685;BME280;46113;50.130;8.526;2023-02-26T11:46:56;99442.59;;;-1.58;49.31
27685;BME280;46113;50.130;8.526;2023-02-26T11:49:26;99449.47;;;-1.49;49.34
27685;BME280;46113;50.130;8.526;2023-02-26T11:52:16;99449.66;;;-1.98;48.53
27685;BME280;46113;50.130;8.526;2023-02-26T11:54:49;99452.06;;;-1.48;47.51
27685;BME280;46113;50.130;8.526;2023-02-26T11:57:24;99447.91;;;-1.80;48.70
27685;BME280;46113;50.130;8.526;2023-02-26T11:59:54;99458.06;;;-1.35;48.80
27685;BME280;46113;50.130;8.526;2023-02-26T12:02:23;99452.94;;;-1.52;47.49
27685;BME280;46113;50.130;8.526;2023-02-26T12:04:56;99441.91;;;-1.94;48.31
27685;BME280;46113;50.130;8.526;2023-02-26T12:07:26;99453.03;;;-1.64;48.17
27685;BME280;46113;50.130;8.526;2023-02-26T12:09:53;99449.50;;;-1.54;47.52
27685;BME280;46113;50.130;8.526;2023-02-26T12:12:33;99446.16;;;-1.76;46.85
27685;BME280;46113;50.130;8.526;2023-02-26T12:15:15;99434.78;;;-1.52;46.79
27685;BME280;46113;50.130;8.526;2023-02-26T12:18:10;99434.94;;;-1.80;47.28
27685;BME280;46113;50.130;8.526;2023-02-26T12:26:32;99453.84;;;-1.61;46.62
27685;BME280;46113;50.130;8.526;2023-02-26T12:35:14;99446.19;;;-1.87;47.13
27685;BME280;46113;50.130;8.526;2023-02-26T12:38:23;99453.91;;;-1.69;47.12
27685;BME280;46113;50.130;8.526;2023-02-26T12:41:23;99452.94;;;-1.47;47.97
27685;BME280;46113;50.130;8.526;2023-02-26T12:43:49;99457.34;;;-1.60;47.16
27685;BME280;46113;50.130;8.526;2023-02-26T12:49:13;99462.72;;;-2.26;46.68
27685;BME280;46113;50.130;8.526;2023-02-26T13:01:15;99463.44;;;-1.71;46.88
27685;BME280;46113;50.130;8.526;2023-02-26T13:03:59;99469.44;;;-1.59;46.15
27685;BME280;46113;50.130;8.526;2023-02-26T13:09:29;99478.22;;;-2.04;46.87
27685;BME280;46113;50.130;8.526;2023-02-26T13:15:02;99470.38;;;-1.79;45.44
27685;BME280;46113;50.130;8.526;2023-02-26T13:17:41;99467.50;;;-1.24;45.01
27685;BME280;46113;50.130;8.526;2023-02-26T13:20:16;99485.84;;;-1.54;44.51
27685;BME280;46113;50.130;8.526;2023-02-26T13:23:18;99476.38;;;-1.64;44.81
27685;BME280;46113;50.130;8.526;2023-02-26T13:31:44;99489.44;;;-1.99;44.00
27685;BME280;46113;50.130;8.526;2023-02-26T13:34:20;99478.94;;;-1.61;43.33
27685;BME280;46113;50.130;8.526;2023-02-26T13:36:48;99473.59;;;-1.27;43.73
27685;BME280;46113;50.130;8.526;2023-02-26T13:48:11;99450.63;;;-0.63;42.04
27685;BME280;46113;50.130;8.526;2023-02-26T13:55:54;99465.09;;;-1.56;42.76
27685;BME280;46113;50.130;8.526;2023-02-26T13:58:39;99456.38;;;-1.42;42.66
27685;BME280;46113;50.130;8.526;2023-02-26T14:01:14;99475.25;;;-1.18;43.28
27685;BME280;46113;50.130;8.526;2023-02-26T14:19:41;99476.38;;;-1.67;43.86
27685;BME280;46113;50.130;8.526;2023-02-26T14:22:31;99485.03;;;-1.65;44.53
27685;BME280;46113;50.130;8.526;2023-02-26T14:27:42;99468.38;;;-1.25;43.59
27685;BME280;46113;50.130;8.526;2023-02-26T14:37:02;99493.66;;;-1.66;42.92
27685;BME280;46113;50.130;8.526;2023-02-26T14:39:56;99501.50;;;-1.91;43.46
27685;BME280;46113;50.130;8.526;2023-02-26T14:42:42;99480.59;;;-1.42;43.31
27685;BME280;46113;50.130;8.526;2023-02-26T14:47:44;99476.31;;;-1.53;42.82
27685;BME280;46113;50.130;8.526;2023-02-26T14:50:21;99480.66;;;-1.59;43.32
27685;BME280;46113;50.130;8.526;2023-02-26T14:53:21;99489.28;;;-1.52;43.88
27685;BME280;46113;50.130;8.526;2023-02-26T14:56:19;99490.19;;;-1.61;43.73
27685;BME280;46113;50.130;8.526;2023-02-26T15:02:00;99505.66;;;-1.40;42.83
27685;BME280;46113;50.130;8.526;2023-02-26T15:10:16;99505.72;;;-1.56;42.50
27685;BME280;46113;50.130;8.526;2023-02-26T15:23:58;99531.81;;;-2.04;43.32
27685;BME280;46113;50.130;8.526;2023-02-26T15:26:33;99530.03;;;-1.91;43.76
27685;BME280;46113;50.130;8.526;2023-02-26T15:29:06;99534.38;;;-1.93;42.90
27685;BME280;46113;50.130;8.526;2023-02-26T15:31:36;99533.53;;;-1.99;43.29
27685;BME280;46113;50.130;8.526;2023-02-26T15:34:10;99534.31;;;-1.73;43.11
27685;BME280;46113;50.130;8.526;2023-02-26T15:36:43;99529.19;;;-1.97;44.20
27685;BME280;46113;50.130;8.526;2023-02-26T15:39:14;99541.25;;;-1.75;43.63
27685;BME280;46113;50.130;8.526;2023-02-26T15:41:41;99542.16;;;-1.95;43.35
27685;BME280;46113;50.130;8.526;2023-02-26T15:44:13;99544.78;;;-2.00;45.07
27685;BME280;46113;50.130;8.526;2023-02-26T15:46:44;99546.50;;;-1.88;45.14
27685;BME280;46113;50.130;8.526;2023-02-26T15:49:15;99550.81;;;-2.05;44.18
27685;BME280;46113;50.130;8.526;2023-02-26T15:51:44;99564.69;;;-2.13;44.05
27685;BME280;46113;50.130;8.526;2023-02-26T15:54:16;99561.22;;;-2.29;43.54
27685;BME280;46113;50.130;8.526;2023-02-26T15:56:44;99567.25;;;-2.47;44.67
27685;BME280;46113;50.130;8.526;2023-02-26T15:59:18;99554.31;;;-2.20;44.84
27685;BME280;46113;50.130;8.526;2023-02-26T16:01:48;99554.28;;;-2.35;44.23
27685;BME280;46113;50.130;8.526;2023-02-26T16:04:18;99562.06;;;-2.24;44.93
27685;BME280;46113;50.130;8.526;2023-02-26T16:06:48;99560.38;;;-2.31;44.86
27685;BME280;46113;50.130;8.526;2023-02-26T16:11:56;99557.75;;;-2.26;44.53